createdAt,value
2022-08-12T00:04:26.868Z,52.10
2022-08-12T00:09:47.786Z,51.80
2022-08-12T00:15:10.585Z,51.80
2022-08-12T00:20:32.386Z,51.80
2022-08-12T00:26:20.929Z,51.80
2022-08-12T00:31:43.998Z,51.90
2022-08-12T00:37:13.192Z,51.80
2022-08-12T00:42:19.505Z,51.90
2022-08-12T00:47:25.707Z,51.90
2022-08-12T00:52:28.268Z,52.00
2022-08-12T00:57:36.389Z,51.90
2022-08-12T01:02:45.959Z,52.00
2022-08-12T01:08:08.201Z,52.00
2022-08-12T01:13:19.253Z,52.00
2022-08-12T01:18:26.029Z,51.90
2022-08-12T01:24:29.704Z,52.00
2022-08-12T01:29:32.529Z,51.90
2022-08-12T01:34:39.232Z,51.90
2022-08-12T01:40:35.438Z,52.20
2022-08-12T01:45:25.232Z,51.90
2022-08-12T01:51:01.412Z,51.90
2022-08-12T01:56:09.810Z,52.00
2022-08-12T02:01:13.500Z,52.00
2022-08-12T02:06:44.991Z,51.90
2022-08-12T02:11:53.816Z,52.00
2022-08-12T02:17:13.625Z,52.00
2022-08-12T02:22:38.081Z,52.00
2022-08-12T02:27:45.432Z,52.00
2022-08-12T02:32:56.751Z,51.90
2022-08-12T02:38:08.497Z,51.90
2022-08-12T02:43:32.630Z,51.90
2022-08-12T02:48:37.888Z,51.90
2022-08-12T02:53:41.002Z,52.00
2022-08-12T02:58:45.812Z,52.00
2022-08-12T03:03:52.752Z,52.30
2022-08-12T03:08:58.727Z,52.00
2022-08-12T03:14:03.476Z,52.10
2022-08-12T03:19:08.735Z,52.00
2022-08-12T03:24:17.065Z,52.00
2022-08-12T03:29:22.425Z,52.00
2022-08-12T03:34:29.342Z,52.30
2022-08-12T03:39:35.914Z,52.00
2022-08-12T03:45:07.407Z,52.00
2022-08-12T03:50:29.417Z,52.10
2022-08-12T03:55:50.440Z,52.00
2022-08-12T04:00:52.919Z,52.40
2022-08-12T04:05:56.743Z,52.10
2022-08-12T04:11:17.885Z,52.10
2022-08-12T04:16:20.792Z,52.10
2022-08-12T04:21:23.082Z,52.70
2022-08-12T04:26:27.119Z,52.10
2022-08-12T04:31:34.630Z,52.10
2022-08-12T04:36:39.506Z,52.40
2022-08-12T04:41:52.462Z,52.20
2022-08-12T04:47:01.158Z,52.10
2022-08-12T04:52:04.343Z,52.40
2022-08-12T04:57:09.036Z,52.50
2022-08-12T05:02:16.941Z,52.10
2022-08-12T05:07:23.732Z,52.10
2022-08-12T05:12:34.519Z,52.40
2022-08-12T05:17:36.814Z,52.50
2022-08-12T05:22:44.486Z,52.10
2022-08-12T05:27:58.143Z,52.40
2022-08-12T05:33:05.997Z,52.10
2022-08-12T05:38:37.660Z,52.10
2022-08-12T05:43:39.855Z,52.00
2022-08-12T05:48:42.417Z,52.00
2022-08-12T05:53:45.050Z,52.00
2022-08-12T05:58:48.471Z,51.90
2022-08-12T06:03:52.402Z,52.00
2022-08-12T06:08:55.714Z,51.90
2022-08-12T06:13:58.180Z,52.00
2022-08-12T06:19:01.836Z,52.00
2022-08-12T06:24:04.375Z,52.00
2022-08-12T06:29:07.036Z,52.10
2022-08-12T06:35:24.122Z,52.10
2022-08-12T06:39:33.147Z,52.10
2022-08-12T06:44:37.799Z,52.50
2022-08-12T06:49:42.060Z,52.30
2022-08-12T06:54:50.333Z,52.30
2022-08-12T06:59:53.641Z,52.20
2022-08-12T07:04:55.936Z,52.40
2022-08-12T07:10:06.512Z,52.50
2022-08-12T07:15:22.857Z,53.00
2022-08-12T07:20:51.621Z,53.20
2022-08-12T07:25:58.249Z,52.80
2022-08-12T07:31:09.314Z,52.60
2022-08-12T07:36:14.367Z,52.90
2022-08-12T07:41:31.669Z,52.70
2022-08-12T07:46:43.167Z,53.30
2022-08-12T07:51:45.815Z,53.60
2022-08-12T07:56:48.302Z,54.00
2022-08-12T08:01:52.438Z,55.20
2022-08-12T08:06:58.457Z,55.50
2022-08-12T08:12:21.071Z,55.60
2022-08-12T08:17:26.539Z,55.30
2022-08-12T08:22:41.950Z,54.10
2022-08-12T08:27:56.142Z,54.60
2022-08-12T08:34:09.082Z,54.50
2022-08-12T08:39:30.805Z,54.80
2022-08-12T08:45:20.494Z,54.50
2022-08-12T08:50:33.824Z,54.70
2022-08-12T08:56:04.541Z,54.70
2022-08-12T09:01:24.489Z,54.70
2022-08-12T09:06:37.484Z,55.20
2022-08-12T09:12:23.719Z,55.60
2022-08-12T09:23:07.973Z,55.30
2022-08-12T09:34:28.217Z,54.70
2022-08-12T09:40:06.443Z,54.50
2022-08-12T09:45:03.547Z,54.70
2022-08-12T09:50:20.134Z,54.80
2022-08-12T09:55:59.741Z,55.00
2022-08-12T10:00:51.955Z,55.00
2022-08-12T10:06:26.369Z,54.60
2022-08-12T10:12:11.819Z,54.40
2022-08-12T10:17:14.529Z,54.60
2022-08-12T10:22:47.116Z,54.00
2022-08-12T10:28:05.370Z,53.90
2022-08-12T10:33:18.068Z,53.90
2022-08-12T10:38:33.459Z,54.10
2022-08-12T10:43:54.215Z,53.70
2022-08-12T10:49:06.860Z,53.60
2022-08-12T10:54:27.549Z,53.40
2022-08-12T11:00:31.353Z,53.50
2022-08-12T11:04:58.732Z,55.50
2022-08-12T11:10:02.720Z,56.20
2022-08-12T11:15:18.796Z,54.40
2022-08-12T11:20:30.965Z,53.90
2022-08-12T11:25:58.059Z,54.20
2022-08-12T11:30:56.254Z,54.30
2022-08-12T11:36:16.227Z,54.50
2022-08-12T11:41:31.410Z,54.20
2022-08-12T11:46:36.642Z,54.20
2022-08-12T11:51:39.676Z,53.90
2022-08-12T11:56:44.808Z,54.30
2022-08-12T12:02:05.076Z,54.00
2022-08-12T12:07:11.467Z,53.80
2022-08-12T12:12:14.551Z,53.70
2022-08-12T12:17:17.666Z,53.80
2022-08-12T12:22:23.613Z,53.80
2022-08-12T12:28:05.162Z,53.80
2022-08-12T12:33:06.714Z,54.30
2022-08-12T12:38:11.875Z,53.70
2022-08-12T12:43:16.207Z,54.10
2022-08-12T12:48:20.958Z,53.80
2022-08-12T12:54:08.095Z,53.80
2022-08-12T12:58:50.196Z,53.70
2022-08-12T13:03:56.084Z,53.60
2022-08-12T13:09:03.776Z,53.50
2022-08-12T13:14:12.322Z,53.80
2022-08-12T13:19:15.831Z,53.60
2022-08-12T13:24:25.416Z,53.90
2022-08-12T13:29:36.171Z,53.60
2022-08-12T13:34:38.496Z,53.90
2022-08-12T13:39:40.728Z,53.50
2022-08-12T13:44:43.391Z,53.50
2022-08-12T13:49:54.976Z,53.50
2022-08-12T13:54:58.313Z,53.40
2022-08-12T14:00:01.731Z,53.40
2022-08-12T14:05:37.849Z,53.40
2022-08-12T14:10:51.171Z,53.60
2022-08-12T14:16:03.664Z,53.30
2022-08-12T14:21:10.462Z,53.60
2022-08-12T14:26:24.012Z,52.90
2022-08-12T14:31:31.427Z,53.20
2022-08-12T14:36:34.429Z,53.20
2022-08-12T14:41:48.648Z,53.20
2022-08-12T14:47:00.310Z,53.20
2022-08-12T14:52:55.728Z,53.20
2022-08-12T14:58:00.639Z,53.20
2022-08-12T15:02:49.647Z,53.20
2022-08-12T15:08:01.795Z,53.20
2022-08-12T15:13:08.344Z,53.50
2022-08-12T15:18:13.728Z,53.20
2022-08-12T15:23:17.373Z,53.20
2022-08-12T15:28:22.528Z,53.30
2022-08-12T15:33:45.236Z,53.20
2022-08-12T15:38:49.810Z,53.50
2022-08-12T15:44:36.673Z,52.80
2022-08-12T15:49:18.946Z,53.20
2022-08-12T15:54:35.076Z,53.20
2022-08-12T16:00:02.364Z,53.30
2022-08-12T16:05:01.338Z,53.40
2022-08-12T16:10:08.826Z,53.80
2022-08-12T16:15:14.149Z,53.50
2022-08-12T16:20:22.583Z,53.50
2022-08-12T16:26:03.107Z,53.50
2022-08-12T16:30:59.767Z,53.50
2022-08-12T16:36:05.746Z,53.50
2022-08-12T16:41:13.151Z,53.40
2022-08-12T16:46:31.468Z,53.50
2022-08-12T16:51:40.286Z,53.70
2022-08-12T16:56:55.143Z,53.70
2022-08-12T17:02:00.619Z,53.30
2022-08-12T17:07:10.465Z,53.10
2022-08-12T17:12:17.974Z,53.40
2022-08-12T17:17:26.513Z,53.30
2022-08-12T17:22:42.897Z,53.40
2022-08-12T17:27:57.269Z,53.00
2022-08-12T17:33:02.461Z,52.90
2022-08-12T17:38:09.491Z,53.00
2022-08-12T17:43:51.938Z,52.90
2022-08-12T17:48:40.639Z,52.90
2022-08-12T17:54:11.112Z,53.00
2022-08-12T17:59:19.262Z,52.80
2022-08-12T18:05:04.823Z,53.20
2022-08-12T18:10:08.491Z,52.90
2022-08-12T18:15:27.032Z,53.30
2022-08-12T18:20:46.792Z,52.80
2022-08-12T18:26:14.668Z,52.80
2022-08-12T18:31:23.167Z,52.90
2022-08-12T18:36:27.815Z,53.20
2022-08-12T18:41:37.403Z,53.30
2022-08-12T18:46:45.602Z,53.30
2022-08-12T18:52:02.699Z,53.00
2022-08-12T18:57:19.769Z,53.40
2022-08-12T19:02:32.524Z,53.10
2022-08-12T19:07:57.809Z,53.00
2022-08-12T19:13:33.063Z,53.10
2022-08-12T19:18:41.014Z,53.20
2022-08-12T19:24:11.721Z,53.30
2022-08-12T19:29:18.274Z,53.70
2022-08-12T19:40:20.172Z,53.50
2022-08-12T19:45:41.753Z,53.50
2022-08-12T19:51:00.284Z,53.50
2022-08-12T19:56:17.032Z,53.50
2022-08-12T20:01:28.108Z,53.50
2022-08-12T20:07:24.011Z,53.80
2022-08-12T20:12:32.581Z,53.90
2022-08-12T20:17:55.954Z,54.10
2022-08-12T20:23:01.700Z,53.50
2022-08-12T20:28:17.204Z,53.50
2022-08-12T20:33:50.265Z,53.60
2022-08-12T20:38:53.914Z,53.60
2022-08-12T20:43:58.459Z,53.70
2022-08-12T20:49:14.310Z,54.00
2022-08-12T20:54:32.440Z,53.70
2022-08-12T20:59:41.896Z,53.70
2022-08-12T21:05:19.758Z,53.80
2022-08-12T21:10:27.593Z,54.10
2022-08-12T21:15:54.553Z,53.90
2022-08-12T21:21:02.490Z,54.20
2022-08-12T21:26:11.212Z,53.90
2022-08-12T21:32:36.200Z,54.30
2022-08-12T21:36:53.268Z,54.30
2022-08-12T21:42:27.991Z,54.00
2022-08-12T21:47:37.239Z,54.00
2022-08-12T21:53:14.873Z,54.00
2022-08-12T21:58:28.714Z,54.40
2022-08-12T22:09:28.606Z,54.00
2022-08-12T22:14:35.534Z,54.10
2022-08-12T22:19:51.790Z,54.10
2022-08-12T22:24:58.426Z,54.10
2022-08-12T22:30:28.477Z,54.30
2022-08-12T22:35:56.704Z,54.20
2022-08-12T22:41:01.693Z,54.20
2022-08-12T22:46:30.913Z,54.30
2022-08-12T22:52:00.364Z,54.60
2022-08-12T22:57:12.853Z,54.30
2022-08-12T23:02:28.947Z,54.30
2022-08-12T23:07:58.890Z,54.30
2022-08-12T23:13:22.014Z,54.40
2022-08-12T23:18:29.952Z,54.50
2022-08-12T23:24:09.329Z,54.40
2022-08-12T23:29:29.513Z,54.40
2022-08-12T23:34:37.961Z,54.30
2022-08-12T23:40:06.755Z,54.40
2022-08-12T23:45:18.955Z,54.40
2022-08-12T23:50:23.928Z,54.50
2022-08-12T23:55:40.669Z,54.50
